sensor_id;sensor_type;location;lat;lon;timestamp;P1;durP1;ratioP1;P2;durP2;ratioP2
4873;SDS011;2451;49.970;9.068;2024-03-29T00:00:52;4.80;;;2.25;;
4873;SDS011;2451;49.970;9.068;2024-03-29T00:03:18;3.53;;;1.50;;
4873;SDS011;2451;49.970;9.068;2024-03-29T00:05:43;2.20;;;1.15;;
4873;SDS011;2451;49.970;9.068;2024-03-29T00:08:09;3.50;;;1.30;;
4873;SDS011;2451;49.970;9.068;2024-03-29T00:10:35;3.08;;;1.50;;
4873;SDS011;2451;49.970;9.068;2024-03-29T00:13:00;3.72;;;1.65;;
4873;SDS011;2451;49.970;9.068;2024-03-29T00:15:26;3.20;;;1.77;;
4873;SDS011;2451;49.970;9.068;2024-03-29T00:17:51;3.22;;;1.55;;
4873;SDS011;2451;49.970;9.068;2024-03-29T00:20:17;5.35;;;1.80;;
4873;SDS011;2451;49.970;9.068;2024-03-29T00:22:42;5.57;;;2.20;;
4873;SDS011;2451;49.970;9.068;2024-03-29T00:25:08;7.10;;;2.03;;
4873;SDS011;2451;49.970;9.068;2024-03-29T00:27:34;4.85;;;2.15;;
4873;SDS011;2451;49.970;9.068;2024-03-29T00:30:00;6.60;;;2.13;;
4873;SDS011;2451;49.970;9.068;2024-03-29T00:32:25;2.78;;;1.50;;
4873;SDS011;2451;49.970;9.068;2024-03-29T00:34:51;4.78;;;2.13;;
4873;SDS011;2451;49.970;9.068;2024-03-29T00:37:23;5.95;;;2.00;;
4873;SDS011;2451;49.970;9.068;2024-03-29T00:39:49;4.13;;;1.60;;
4873;SDS011;2451;49.970;9.068;2024-03-29T00:42:15;3.05;;;1.52;;
4873;SDS011;2451;49.970;9.068;2024-03-29T00:44:42;2.92;;;1.38;;
4873;SDS011;2451;49.970;9.068;2024-03-29T00:47:08;2.40;;;1.40;;
4873;SDS011;2451;49.970;9.068;2024-03-29T00:49:34;3.95;;;1.48;;
4873;SDS011;2451;49.970;9.068;2024-03-29T00:52:03;2.22;;;1.23;;
4873;SDS011;2451;49.970;9.068;2024-03-29T00:54:29;2.17;;;1.42;;
4873;SDS011;2451;49.970;9.068;2024-03-29T00:56:55;2.15;;;1.17;;
4873;SDS011;2451;49.970;9.068;2024-03-29T00:59:21;3.75;;;1.50;;
4873;SDS011;2451;49.970;9.068;2024-03-29T01:01:47;4.63;;;1.15;;
4873;SDS011;2451;49.970;9.068;2024-03-29T01:04:13;2.40;;;1.27;;
4873;SDS011;2451;49.970;9.068;2024-03-29T01:06:39;2.80;;;1.05;;
4873;SDS011;2451;49.970;9.068;2024-03-29T01:09:05;2.22;;;1.20;;
4873;SDS011;2451;49.970;9.068;2024-03-29T01:11:31;3.28;;;1.33;;
4873;SDS011;2451;49.970;9.068;2024-03-29T01:13:56;3.75;;;1.50;;
4873;SDS011;2451;49.970;9.068;2024-03-29T01:16:22;2.95;;;1.33;;
4873;SDS011;2451;49.970;9.068;2024-03-29T01:18:48;3.20;;;1.42;;
4873;SDS011;2451;49.970;9.068;2024-03-29T01:21:14;3.28;;;1.60;;
4873;SDS011;2451;49.970;9.068;2024-03-29T01:23:40;3.85;;;1.20;;
4873;SDS011;2451;49.970;9.068;2024-03-29T01:26:06;2.88;;;1.30;;
4873;SDS011;2451;49.970;9.068;2024-03-29T01:28:32;2.03;;;1.33;;
4873;SDS011;2451;49.970;9.068;2024-03-29T01:30:58;3.28;;;1.38;;
4873;SDS011;2451;49.970;9.068;2024-03-29T01:33:24;2.05;;;1.20;;
4873;SDS011;2451;49.970;9.068;2024-03-29T01:35:51;2.00;;;1.17;;
4873;SDS011;2451;49.970;9.068;2024-03-29T01:38:19;3.00;;;1.40;;
4873;SDS011;2451;49.970;9.068;2024-03-29T01:40:47;3.35;;;1.30;;
4873;SDS011;2451;49.970;9.068;2024-03-29T01:43:13;3.47;;;1.40;;
4873;SDS011;2451;49.970;9.068;2024-03-29T01:45:39;3.35;;;1.23;;
4873;SDS011;2451;49.970;9.068;2024-03-29T01:48:05;2.17;;;1.20;;
4873;SDS011;2451;49.970;9.068;2024-03-29T01:50:31;2.92;;;1.20;;
4873;SDS011;2451;49.970;9.068;2024-03-29T01:52:57;1.40;;;1.20;;
4873;SDS011;2451;49.970;9.068;2024-03-29T01:55:24;2.67;;;1.20;;
4873;SDS011;2451;49.970;9.068;2024-03-29T01:57:50;2.55;;;1.25;;
4873;SDS011;2451;49.970;9.068;2024-03-29T02:00:16;2.95;;;1.33;;
4873;SDS011;2451;49.970;9.068;2024-03-29T02:02:43;2.65;;;1.40;;
4873;SDS011;2451;49.970;9.068;2024-03-29T02:05:08;3.78;;;1.40;;
4873;SDS011;2451;49.970;9.068;2024-03-29T02:07:35;2.53;;;1.17;;
4873;SDS011;2451;49.970;9.068;2024-03-29T02:10:02;3.65;;;1.30;;
4873;SDS011;2451;49.970;9.068;2024-03-29T02:12:28;3.28;;;1.40;;
4873;SDS011;2451;49.970;9.068;2024-03-29T02:14:54;2.55;;;1.17;;
4873;SDS011;2451;49.970;9.068;2024-03-29T02:17:20;2.50;;;1.25;;
4873;SDS011;2451;49.970;9.068;2024-03-29T02:19:46;3.45;;;1.17;;
4873;SDS011;2451;49.970;9.068;2024-03-29T02:22:12;3.15;;;1.30;;
4873;SDS011;2451;49.970;9.068;2024-03-29T02:24:40;2.15;;;1.15;;
4873;SDS011;2451;49.970;9.068;2024-03-29T02:27:08;3.38;;;1.40;;
4873;SDS011;2451;49.970;9.068;2024-03-29T02:29:37;3.80;;;1.60;;
4873;SDS011;2451;49.970;9.068;2024-03-29T02:32:03;3.30;;;1.23;;
4873;SDS011;2451;49.970;9.068;2024-03-29T02:34:29;2.10;;;1.20;;
4873;SDS011;2451;49.970;9.068;2024-03-29T02:36:54;2.63;;;0.98;;
4873;SDS011;2451;49.970;9.068;2024-03-29T02:39:22;3.65;;;1.30;;
4873;SDS011;2451;49.970;9.068;2024-03-29T02:41:47;3.05;;;1.10;;
4873;SDS011;2451;49.970;9.068;2024-03-29T02:44:13;1.35;;;0.90;;
4873;SDS011;2451;49.970;9.068;2024-03-29T02:46:40;2.05;;;1.13;;
4873;SDS011;2451;49.970;9.068;2024-03-29T02:49:06;4.80;;;1.23;;
4873;SDS011;2451;49.970;9.068;2024-03-29T02:51:32;2.40;;;1.00;;
4873;SDS011;2451;49.970;9.068;2024-03-29T02:53:57;2.63;;;1.23;;
4873;SDS011;2451;49.970;9.068;2024-03-29T02:56:23;3.33;;;1.10;;
4873;SDS011;2451;49.970;9.068;2024-03-29T02:58:48;2.70;;;1.20;;
4873;SDS011;2451;49.970;9.068;2024-03-29T03:01:14;2.33;;;1.10;;
4873;SDS011;2451;49.970;9.068;2024-03-29T03:03:39;2.78;;;1.02;;
4873;SDS011;2451;49.970;9.068;2024-03-29T03:06:05;2.95;;;1.20;;
4873;SDS011;2451;49.970;9.068;2024-03-29T03:08:30;1.92;;;0.90;;
4873;SDS011;2451;49.970;9.068;2024-03-29T03:11:15;1.98;;;0.90;;
4873;SDS011;2451;49.970;9.068;2024-03-29T03:13:40;1.40;;;1.02;;
4873;SDS011;2451;49.970;9.068;2024-03-29T03:16:06;1.23;;;1.00;;
4873;SDS011;2451;49.970;9.068;2024-03-29T03:18:31;3.17;;;1.20;;
4873;SDS011;2451;49.970;9.068;2024-03-29T03:20:57;4.18;;;1.40;;
4873;SDS011;2451;49.970;9.068;2024-03-29T03:23:23;3.75;;;1.40;;
4873;SDS011;2451;49.970;9.068;2024-03-29T03:25:55;2.33;;;1.00;;
4873;SDS011;2451;49.970;9.068;2024-03-29T03:28:22;2.97;;;1.40;;
4873;SDS011;2451;49.970;9.068;2024-03-29T03:30:48;4.28;;;1.30;;
4873;SDS011;2451;49.970;9.068;2024-03-29T03:33:14;3.55;;;1.20;;
4873;SDS011;2451;49.970;9.068;2024-03-29T03:35:41;1.67;;;1.02;;
4873;SDS011;2451;49.970;9.068;2024-03-29T03:38:09;1.90;;;0.90;;
4873;SDS011;2451;49.970;9.068;2024-03-29T03:40:35;2.58;;;1.38;;
4873;SDS011;2451;49.970;9.068;2024-03-29T03:43:02;1.85;;;1.20;;
4873;SDS011;2451;49.970;9.068;2024-03-29T03:45:28;2.97;;;1.00;;
4873;SDS011;2451;49.970;9.068;2024-03-29T03:47:53;2.78;;;1.02;;
4873;SDS011;2451;49.970;9.068;2024-03-29T03:50:19;0.90;;;0.90;;
4873;SDS011;2451;49.970;9.068;2024-03-29T03:52:45;3.58;;;1.02;;
4873;SDS011;2451;49.970;9.068;2024-03-29T03:55:10;3.47;;;1.42;;
4873;SDS011;2451;49.970;9.068;2024-03-29T03:57:36;4.00;;;1.33;;
4873;SDS011;2451;49.970;9.068;2024-03-29T04:00:01;1.65;;;0.90;;
4873;SDS011;2451;49.970;9.068;2024-03-29T04:02:28;5.03;;;1.15;;
4873;SDS011;2451;49.970;9.068;2024-03-29T04:04:53;2.55;;;0.93;;
4873;SDS011;2451;49.970;9.068;2024-03-29T04:07:19;1.55;;;0.88;;
4873;SDS011;2451;49.970;9.068;2024-03-29T04:09:45;2.83;;;0.80;;
4873;SDS011;2451;49.970;9.068;2024-03-29T04:12:10;1.42;;;0.73;;
4873;SDS011;2451;49.970;9.068;2024-03-29T04:14:36;4.25;;;1.23;;
4873;SDS011;2451;49.970;9.068;2024-03-29T04:17:01;1.52;;;0.90;;
4873;SDS011;2451;49.970;9.068;2024-03-29T04:19:27;1.95;;;1.00;;
4873;SDS011;2451;49.970;9.068;2024-03-29T04:21:52;0.95;;;0.73;;
4873;SDS011;2451;49.970;9.068;2024-03-29T04:24:18;1.25;;;0.90;;
4873;SDS011;2451;49.970;9.068;2024-03-29T04:26:43;2.38;;;1.10;;
4873;SDS011;2451;49.970;9.068;2024-03-29T04:29:09;2.42;;;1.17;;
4873;SDS011;2451;49.970;9.068;2024-03-29T04:31:35;5.30;;;0.95;;
4873;SDS011;2451;49.970;9.068;2024-03-29T04:34:01;2.80;;;1.02;;
4873;SDS011;2451;49.970;9.068;2024-03-29T04:36:26;1.67;;;0.93;;
4873;SDS011;2451;49.970;9.068;2024-03-29T04:38:52;2.30;;;1.05;;
4873;SDS011;2451;49.970;9.068;2024-03-29T04:41:18;2.05;;;1.30;;
4873;SDS011;2451;49.970;9.068;2024-03-29T04:43:44;2.95;;;1.33;;
4873;SDS011;2451;49.970;9.068;2024-03-29T04:46:13;1.80;;;1.00;;
4873;SDS011;2451;49.970;9.068;2024-03-29T04:48:42;3.00;;;1.13;;
4873;SDS011;2451;49.970;9.068;2024-03-29T04:51:08;2.17;;;1.00;;
4873;SDS011;2451;49.970;9.068;2024-03-29T04:53:35;1.33;;;0.90;;
4873;SDS011;2451;49.970;9.068;2024-03-29T04:56:01;1.65;;;1.00;;
4873;SDS011;2451;49.970;9.068;2024-03-29T04:58:27;1.73;;;1.00;;
4873;SDS011;2451;49.970;9.068;2024-03-29T05:00:53;2.17;;;1.02;;
4873;SDS011;2451;49.970;9.068;2024-03-29T05:03:19;2.03;;;1.25;;
4873;SDS011;2451;49.970;9.068;2024-03-29T05:05:45;1.38;;;0.77;;
4873;SDS011;2451;49.970;9.068;2024-03-29T05:08:11;3.35;;;1.00;;
4873;SDS011;2451;49.970;9.068;2024-03-29T05:10:38;0.85;;;0.70;;
4873;SDS011;2451;49.970;9.068;2024-03-29T05:13:04;1.77;;;0.93;;
4873;SDS011;2451;49.970;9.068;2024-03-29T05:15:30;3.20;;;0.82;;
4873;SDS011;2451;49.970;9.068;2024-03-29T05:17:56;3.42;;;0.90;;
4873;SDS011;2451;49.970;9.068;2024-03-29T05:20:22;3.85;;;1.20;;
4873;SDS011;2451;49.970;9.068;2024-03-29T05:22:47;2.42;;;0.75;;
4873;SDS011;2451;49.970;9.068;2024-03-29T05:25:13;1.63;;;1.10;;
4873;SDS011;2451;49.970;9.068;2024-03-29T05:27:38;1.00;;;0.90;;
4873;SDS011;2451;49.970;9.068;2024-03-29T05:30:04;1.45;;;0.90;;
4873;SDS011;2451;49.970;9.068;2024-03-29T05:32:30;1.58;;;1.00;;
4873;SDS011;2451;49.970;9.068;2024-03-29T05:34:56;3.38;;;0.98;;
4873;SDS011;2451;49.970;9.068;2024-03-29T05:37:21;3.95;;;1.52;;
4873;SDS011;2451;49.970;9.068;2024-03-29T05:39:49;2.78;;;1.00;;
4873;SDS011;2451;49.970;9.068;2024-03-29T05:42:23;1.17;;;1.08;;
4873;SDS011;2451;49.970;9.068;2024-03-29T05:44:50;2.00;;;1.10;;
4873;SDS011;2451;49.970;9.068;2024-03-29T05:47:15;2.65;;;1.10;;
4873;SDS011;2451;49.970;9.068;2024-03-29T05:49:41;2.20;;;1.38;;
4873;SDS011;2451;49.970;9.068;2024-03-29T05:52:06;1.95;;;1.20;;
4873;SDS011;2451;49.970;9.068;2024-03-29T05:54:32;2.35;;;1.25;;
4873;SDS011;2451;49.970;9.068;2024-03-29T05:56:57;2.53;;;1.15;;
4873;SDS011;2451;49.970;9.068;2024-03-29T05:59:23;1.88;;;1.05;;
4873;SDS011;2451;49.970;9.068;2024-03-29T06:01:48;3.58;;;1.30;;
4873;SDS011;2451;49.970;9.068;2024-03-29T06:04:14;1.42;;;1.00;;
4873;SDS011;2451;49.970;9.068;2024-03-29T06:06:43;2.95;;;1.10;;
4873;SDS011;2451;49.970;9.068;2024-03-29T06:09:09;6.70;;;2.55;;
4873;SDS011;2451;49.970;9.068;2024-03-29T06:11:35;5.63;;;2.42;;
4873;SDS011;2451;49.970;9.068;2024-03-29T06:14:00;9.00;;;3.53;;
4873;SDS011;2451;49.970;9.068;2024-03-29T06:16:27;4.30;;;1.50;;
4873;SDS011;2451;49.970;9.068;2024-03-29T06:19:12;2.90;;;1.33;;
4873;SDS011;2451;49.970;9.068;2024-03-29T06:21:38;2.42;;;1.30;;
4873;SDS011;2451;49.970;9.068;2024-03-29T06:24:05;2.83;;;1.10;;
4873;SDS011;2451;49.970;9.068;2024-03-29T06:26:31;2.53;;;1.20;;
4873;SDS011;2451;49.970;9.068;2024-03-29T06:28:57;3.72;;;1.30;;
4873;SDS011;2451;49.970;9.068;2024-03-29T06:31:23;1.77;;;1.23;;
4873;SDS011;2451;49.970;9.068;2024-03-29T06:33:48;3.95;;;1.90;;
4873;SDS011;2451;49.970;9.068;2024-03-29T06:36:14;4.20;;;2.13;;
4873;SDS011;2451;49.970;9.068;2024-03-29T06:38:39;6.13;;;3.20;;
4873;SDS011;2451;49.970;9.068;2024-03-29T06:41:05;4.22;;;1.80;;
4873;SDS011;2451;49.970;9.068;2024-03-29T06:43:30;5.22;;;1.85;;
4873;SDS011;2451;49.970;9.068;2024-03-29T06:45:56;4.07;;;1.67;;
4873;SDS011;2451;49.970;9.068;2024-03-29T06:48:23;3.33;;;1.30;;
4873;SDS011;2451;49.970;9.068;2024-03-29T06:50:49;4.25;;;1.55;;
4873;SDS011;2451;49.970;9.068;2024-03-29T06:53:14;2.17;;;1.45;;
4873;SDS011;2451;49.970;9.068;2024-03-29T06:55:40;4.10;;;1.25;;
4873;SDS011;2451;49.970;9.068;2024-03-29T06:58:06;3.08;;;1.60;;
4873;SDS011;2451;49.970;9.068;2024-03-29T07:00:32;2.63;;;1.45;;
4873;SDS011;2451;49.970;9.068;2024-03-29T07:02:58;2.15;;;1.33;;
4873;SDS011;2451;49.970;9.068;2024-03-29T07:05:23;3.22;;;1.77;;
4873;SDS011;2451;49.970;9.068;2024-03-29T07:07:49;4.10;;;1.45;;
4873;SDS011;2451;49.970;9.068;2024-03-29T07:10:14;2.33;;;1.30;;
4873;SDS011;2451;49.970;9.068;2024-03-29T07:12:40;1.45;;;1.30;;
4873;SDS011;2451;49.970;9.068;2024-03-29T07:15:05;2.53;;;1.55;;
4873;SDS011;2451;49.970;9.068;2024-03-29T07:17:31;1.50;;;1.00;;
4873;SDS011;2451;49.970;9.068;2024-03-29T07:19:57;2.35;;;1.40;;
4873;SDS011;2451;49.970;9.068;2024-03-29T07:22:22;2.45;;;1.40;;
4873;SDS011;2451;49.970;9.068;2024-03-29T07:24:48;4.63;;;1.95;;
4873;SDS011;2451;49.970;9.068;2024-03-29T07:27:13;3.88;;;1.95;;
4873;SDS011;2451;49.970;9.068;2024-03-29T07:29:42;3.75;;;2.38;;
4873;SDS011;2451;49.970;9.068;2024-03-29T07:32:09;4.78;;;2.03;;
4873;SDS011;2451;49.970;9.068;2024-03-29T07:34:34;3.90;;;1.70;;
4873;SDS011;2451;49.970;9.068;2024-03-29T07:37:00;5.10;;;2.33;;
4873;SDS011;2451;49.970;9.068;2024-03-29T07:39:26;4.30;;;2.17;;
4873;SDS011;2451;49.970;9.068;2024-03-29T07:41:51;3.67;;;1.67;;
4873;SDS011;2451;49.970;9.068;2024-03-29T07:44:17;3.10;;;1.42;;
4873;SDS011;2451;49.970;9.068;2024-03-29T07:46:42;2.72;;;1.70;;
4873;SDS011;2451;49.970;9.068;2024-03-29T07:49:08;3.75;;;1.60;;
4873;SDS011;2451;49.970;9.068;2024-03-29T07:51:33;2.95;;;1.38;;
4873;SDS011;2451;49.970;9.068;2024-03-29T07:53:59;2.75;;;1.70;;
4873;SDS011;2451;49.970;9.068;2024-03-29T07:56:25;2.83;;;1.70;;
4873;SDS011;2451;49.970;9.068;2024-03-29T07:58:54;3.28;;;1.70;;
4873;SDS011;2451;49.970;9.068;2024-03-29T08:01:20;3.63;;;1.52;;
4873;SDS011;2451;49.970;9.068;2024-03-29T08:03:46;3.15;;;1.60;;
4873;SDS011;2451;49.970;9.068;2024-03-29T08:06:12;2.45;;;1.60;;
4873;SDS011;2451;49.970;9.068;2024-03-29T08:08:38;3.33;;;1.85;;
4873;SDS011;2451;49.970;9.068;2024-03-29T08:11:03;3.65;;;2.10;;
4873;SDS011;2451;49.970;9.068;2024-03-29T08:13:29;2.95;;;1.77;;
4873;SDS011;2451;49.970;9.068;2024-03-29T08:15:58;2.90;;;1.80;;
4873;SDS011;2451;49.970;9.068;2024-03-29T08:18:25;3.78;;;1.77;;
4873;SDS011;2451;49.970;9.068;2024-03-29T08:20:51;2.67;;;1.50;;
4873;SDS011;2451;49.970;9.068;2024-03-29T08:23:17;3.08;;;1.92;;
4873;SDS011;2451;49.970;9.068;2024-03-29T08:25:42;3.30;;;1.67;;
4873;SDS011;2451;49.970;9.068;2024-03-29T08:28:09;4.45;;;1.90;;
4873;SDS011;2451;49.970;9.068;2024-03-29T08:30:35;5.03;;;1.80;;
4873;SDS011;2451;49.970;9.068;2024-03-29T08:33:02;4.78;;;1.65;;
4873;SDS011;2451;49.970;9.068;2024-03-29T08:35:28;2.60;;;1.52;;
4873;SDS011;2451;49.970;9.068;2024-03-29T08:38:00;2.55;;;1.73;;
4873;SDS011;2451;49.970;9.068;2024-03-29T08:40:27;3.95;;;1.95;;
4873;SDS011;2451;49.970;9.068;2024-03-29T08:42:54;4.15;;;1.90;;
4873;SDS011;2451;49.970;9.068;2024-03-29T08:45:21;4.10;;;2.10;;
4873;SDS011;2451;49.970;9.068;2024-03-29T08:47:46;4.97;;;2.00;;
4873;SDS011;2451;49.970;9.068;2024-03-29T08:50:12;4.15;;;2.35;;
4873;SDS011;2451;49.970;9.068;2024-03-29T08:52:38;4.60;;;2.10;;
4873;SDS011;2451;49.970;9.068;2024-03-29T08:55:05;3.03;;;1.80;;
4873;SDS011;2451;49.970;9.068;2024-03-29T08:57:33;4.50;;;2.00;;
4873;SDS011;2451;49.970;9.068;2024-03-29T08:59:59;4.68;;;2.25;;
4873;SDS011;2451;49.970;9.068;2024-03-29T09:02:25;5.13;;;1.98;;
4873;SDS011;2451;49.970;9.068;2024-03-29T09:04:50;4.13;;;2.00;;
4873;SDS011;2451;49.970;9.068;2024-03-29T09:07:16;4.47;;;2.10;;
4873;SDS011;2451;49.970;9.068;2024-03-29T09:09:41;5.38;;;2.00;;
4873;SDS011;2451;49.970;9.068;2024-03-29T09:12:07;2.03;;;1.50;;
4873;SDS011;2451;49.970;9.068;2024-03-29T09:14:33;4.28;;;2.00;;
4873;SDS011;2451;49.970;9.068;2024-03-29T09:16:59;3.58;;;1.80;;
4873;SDS011;2451;49.970;9.068;2024-03-29T09:19:24;5.07;;;1.73;;
4873;SDS011;2451;49.970;9.068;2024-03-29T09:21:50;2.72;;;1.80;;
4873;SDS011;2451;49.970;9.068;2024-03-29T09:24:16;2.45;;;1.48;;
4873;SDS011;2451;49.970;9.068;2024-03-29T09:26:42;3.47;;;1.85;;
4873;SDS011;2451;49.970;9.068;2024-03-29T09:29:08;3.90;;;1.83;;
4873;SDS011;2451;49.970;9.068;2024-03-29T09:31:34;3.28;;;1.92;;
4873;SDS011;2451;49.970;9.068;2024-03-29T09:34:00;4.28;;;2.10;;
4873;SDS011;2451;49.970;9.068;2024-03-29T09:36:25;3.80;;;1.83;;
4873;SDS011;2451;49.970;9.068;2024-03-29T09:38:51;3.67;;;2.05;;
4873;SDS011;2451;49.970;9.068;2024-03-29T09:41:17;3.42;;;1.70;;
4873;SDS011;2451;49.970;9.068;2024-03-29T09:43:45;3.10;;;1.50;;
4873;SDS011;2451;49.970;9.068;2024-03-29T09:46:12;1.98;;;1.50;;
4873;SDS011;2451;49.970;9.068;2024-03-29T09:48:42;2.70;;;1.48;;
4873;SDS011;2451;49.970;9.068;2024-03-29T09:51:10;4.60;;;1.38;;
4873;SDS011;2451;49.970;9.068;2024-03-29T09:53:40;3.10;;;1.42;;
4873;SDS011;2451;49.970;9.068;2024-03-29T09:56:06;1.67;;;1.30;;
4873;SDS011;2451;49.970;9.068;2024-03-29T09:58:33;2.50;;;1.58;;
4873;SDS011;2451;49.970;9.068;2024-03-29T10:01:03;4.00;;;1.30;;
4873;SDS011;2451;49.970;9.068;2024-03-29T10:03:29;2.03;;;1.30;;
4873;SDS011;2451;49.970;9.068;2024-03-29T10:05:56;3.35;;;1.75;;
4873;SDS011;2451;49.970;9.068;2024-03-29T10:10:55;4.68;;;2.33;;
4873;SDS011;2451;49.970;9.068;2024-03-29T10:13:21;5.05;;;2.17;;
4873;SDS011;2451;49.970;9.068;2024-03-29T10:15:51;4.15;;;1.83;;
4873;SDS011;2451;49.970;9.068;2024-03-29T10:21:01;3.08;;;1.42;;
4873;SDS011;2451;49.970;9.068;2024-03-29T10:23:28;3.50;;;1.60;;
4873;SDS011;2451;49.970;9.068;2024-03-29T10:25:53;2.35;;;1.55;;
4873;SDS011;2451;49.970;9.068;2024-03-29T10:28:19;4.63;;;2.15;;
4873;SDS011;2451;49.970;9.068;2024-03-29T10:30:45;5.22;;;1.90;;
4873;SDS011;2451;49.970;9.068;2024-03-29T10:33:11;2.45;;;1.50;;
4873;SDS011;2451;49.970;9.068;2024-03-29T10:35:41;1.77;;;1.35;;
4873;SDS011;2451;49.970;9.068;2024-03-29T10:38:10;3.40;;;1.73;;
4873;SDS011;2451;49.970;9.068;2024-03-29T10:40:39;4.57;;;2.05;;
4873;SDS011;2451;49.970;9.068;2024-03-29T10:43:06;2.85;;;1.60;;
4873;SDS011;2451;49.970;9.068;2024-03-29T10:45:37;3.38;;;2.00;;
4873;SDS011;2451;49.970;9.068;2024-03-29T10:48:03;2.85;;;1.65;;
4873;SDS011;2451;49.970;9.068;2024-03-29T10:50:34;5.00;;;2.42;;
4873;SDS011;2451;49.970;9.068;2024-03-29T10:53:01;4.78;;;2.50;;
4873;SDS011;2451;49.970;9.068;2024-03-29T10:55:30;5.80;;;2.55;;
4873;SDS011;2451;49.970;9.068;2024-03-29T10:57:58;4.25;;;2.33;;
4873;SDS011;2451;49.970;9.068;2024-03-29T11:00:26;3.63;;;1.95;;
4873;SDS011;2451;49.970;9.068;2024-03-29T11:05:41;2.92;;;1.55;;
4873;SDS011;2451;49.970;9.068;2024-03-29T11:08:14;2.78;;;1.60;;
4873;SDS011;2451;49.970;9.068;2024-03-29T11:10:45;3.33;;;1.40;;
4873;SDS011;2451;49.970;9.068;2024-03-29T11:15:48;2.67;;;1.60;;
4873;SDS011;2451;49.970;9.068;2024-03-29T11:18:15;3.38;;;1.50;;
4873;SDS011;2451;49.970;9.068;2024-03-29T11:20:43;2.13;;;1.50;;
4873;SDS011;2451;49.970;9.068;2024-03-29T11:23:16;4.05;;;1.80;;
4873;SDS011;2451;49.970;9.068;2024-03-29T11:25:44;2.70;;;1.63;;
4873;SDS011;2451;49.970;9.068;2024-03-29T11:28:27;3.88;;;1.60;;
4873;SDS011;2451;49.970;9.068;2024-03-29T11:31:00;1.85;;;1.40;;
4873;SDS011;2451;49.970;9.068;2024-03-29T11:36:15;3.15;;;1.75;;
4873;SDS011;2451;49.970;9.068;2024-03-29T11:38:52;1.83;;;1.30;;
4873;SDS011;2451;49.970;9.068;2024-03-29T11:41:28;2.83;;;1.67;;
4873;SDS011;2451;49.970;9.068;2024-03-29T11:43:54;3.53;;;1.60;;
4873;SDS011;2451;49.970;9.068;2024-03-29T11:46:21;2.78;;;1.60;;
4873;SDS011;2451;49.970;9.068;2024-03-29T11:48:47;1.63;;;1.42;;
4873;SDS011;2451;49.970;9.068;2024-03-29T11:51:21;4.25;;;1.48;;
4873;SDS011;2451;49.970;9.068;2024-03-29T11:53:49;3.17;;;1.60;;
4873;SDS011;2451;49.970;9.068;2024-03-29T11:56:18;1.98;;;1.40;;
4873;SDS011;2451;49.970;9.068;2024-03-29T11:58:44;4.32;;;1.63;;
4873;SDS011;2451;49.970;9.068;2024-03-29T12:01:09;4.10;;;1.60;;
4873;SDS011;2451;49.970;9.068;2024-03-29T12:03:38;2.42;;;1.30;;
4873;SDS011;2451;49.970;9.068;2024-03-29T12:08:31;2.97;;;1.40;;
4873;SDS011;2451;49.970;9.068;2024-03-29T12:10:58;3.35;;;1.58;;
4873;SDS011;2451;49.970;9.068;2024-03-29T12:13:25;6.18;;;1.88;;
4873;SDS011;2451;49.970;9.068;2024-03-29T12:15:50;3.70;;;1.95;;
4873;SDS011;2451;49.970;9.068;2024-03-29T12:18:16;3.67;;;1.80;;
4873;SDS011;2451;49.970;9.068;2024-03-29T12:20:45;4.15;;;2.50;;
4873;SDS011;2451;49.970;9.068;2024-03-29T12:23:18;4.57;;;1.75;;
4873;SDS011;2451;49.970;9.068;2024-03-29T12:25:45;4.50;;;2.22;;
4873;SDS011;2451;49.970;9.068;2024-03-29T12:28:12;3.47;;;2.20;;
4873;SDS011;2451;49.970;9.068;2024-03-29T12:30:46;4.15;;;1.92;;
4873;SDS011;2451;49.970;9.068;2024-03-29T12:33:17;3.97;;;1.95;;
4873;SDS011;2451;49.970;9.068;2024-03-29T12:35:47;3.63;;;1.73;;
4873;SDS011;2451;49.970;9.068;2024-03-29T12:38:14;4.00;;;1.63;;
4873;SDS011;2451;49.970;9.068;2024-03-29T12:40:41;3.53;;;1.48;;
4873;SDS011;2451;49.970;9.068;2024-03-29T12:43:12;2.92;;;1.55;;
4873;SDS011;2451;49.970;9.068;2024-03-29T12:45:41;3.33;;;1.65;;
4873;SDS011;2451;49.970;9.068;2024-03-29T12:48:10;3.40;;;1.70;;
4873;SDS011;2451;49.970;9.068;2024-03-29T12:50:48;2.90;;;1.50;;
4873;SDS011;2451;49.970;9.068;2024-03-29T12:53:14;2.67;;;1.90;;
4873;SDS011;2451;49.970;9.068;2024-03-29T12:55:41;3.47;;;1.40;;
4873;SDS011;2451;49.970;9.068;2024-03-29T13:00:37;3.97;;;1.55;;
4873;SDS011;2451;49.970;9.068;2024-03-29T13:03:03;3.13;;;1.73;;
4873;SDS011;2451;49.970;9.068;2024-03-29T13:05:29;4.07;;;2.00;;
4873;SDS011;2451;49.970;9.068;2024-03-29T13:08:00;6.13;;;3.30;;
4873;SDS011;2451;49.970;9.068;2024-03-29T13:10:29;3.55;;;2.03;;
4873;SDS011;2451;49.970;9.068;2024-03-29T13:12:55;4.28;;;2.58;;
4873;SDS011;2451;49.970;9.068;2024-03-29T13:15:21;7.75;;;3.17;;
4873;SDS011;2451;49.970;9.068;2024-03-29T13:20:16;5.05;;;2.58;;
4873;SDS011;2451;49.970;9.068;2024-03-29T13:22:42;2.88;;;1.80;;
4873;SDS011;2451;49.970;9.068;2024-03-29T13:25:10;2.95;;;1.92;;
4873;SDS011;2451;49.970;9.068;2024-03-29T13:27:39;3.33;;;1.65;;
4873;SDS011;2451;49.970;9.068;2024-03-29T13:30:06;2.95;;;1.80;;
4873;SDS011;2451;49.970;9.068;2024-03-29T13:32:34;3.55;;;2.03;;
4873;SDS011;2451;49.970;9.068;2024-03-29T13:35:00;5.57;;;2.55;;
4873;SDS011;2451;49.970;9.068;2024-03-29T13:37:26;4.22;;;2.45;;
4873;SDS011;2451;49.970;9.068;2024-03-29T13:39:52;3.28;;;2.00;;
4873;SDS011;2451;49.970;9.068;2024-03-29T13:42:18;3.80;;;2.10;;
4873;SDS011;2451;49.970;9.068;2024-03-29T13:44:44;5.20;;;2.40;;
4873;SDS011;2451;49.970;9.068;2024-03-29T13:47:10;4.72;;;2.42;;
4873;SDS011;2451;49.970;9.068;2024-03-29T13:49:41;3.60;;;2.47;;
4873;SDS011;2451;49.970;9.068;2024-03-29T13:52:07;4.28;;;2.63;;
4873;SDS011;2451;49.970;9.068;2024-03-29T13:54:33;4.05;;;2.55;;
4873;SDS011;2451;49.970;9.068;2024-03-29T13:56:59;7.55;;;3.05;;
4873;SDS011;2451;49.970;9.068;2024-03-29T13:59:25;4.43;;;2.60;;
4873;SDS011;2451;49.970;9.068;2024-03-29T14:01:52;8.18;;;3.03;;
4873;SDS011;2451;49.970;9.068;2024-03-29T14:04:17;3.95;;;2.30;;
4873;SDS011;2451;49.970;9.068;2024-03-29T14:06:43;5.65;;;2.80;;
4873;SDS011;2451;49.970;9.068;2024-03-29T14:09:08;11.82;;;6.07;;
4873;SDS011;2451;49.970;9.068;2024-03-29T14:11:34;11.48;;;5.60;;
4873;SDS011;2451;49.970;9.068;2024-03-29T14:13:59;4.40;;;2.50;;
4873;SDS011;2451;49.970;9.068;2024-03-29T14:16:25;10.38;;;5.47;;
4873;SDS011;2451;49.970;9.068;2024-03-29T14:18:51;10.82;;;5.10;;
4873;SDS011;2451;49.970;9.068;2024-03-29T14:21:16;7.75;;;4.13;;
4873;SDS011;2451;49.970;9.068;2024-03-29T14:23:42;6.13;;;2.75;;
4873;SDS011;2451;49.970;9.068;2024-03-29T14:26:07;4.35;;;2.33;;
4873;SDS011;2451;49.970;9.068;2024-03-29T14:28:33;6.15;;;3.45;;
4873;SDS011;2451;49.970;9.068;2024-03-29T14:30:58;11.63;;;5.65;;
4873;SDS011;2451;49.970;9.068;2024-03-29T14:33:24;11.73;;;5.80;;
4873;SDS011;2451;49.970;9.068;2024-03-29T14:35:49;9.02;;;3.95;;
4873;SDS011;2451;49.970;9.068;2024-03-29T14:38:15;4.55;;;2.90;;
4873;SDS011;2451;49.970;9.068;2024-03-29T14:40:41;10.32;;;6.63;;
4873;SDS011;2451;49.970;9.068;2024-03-29T14:43:07;2.95;;;2.10;;
4873;SDS011;2451;49.970;9.068;2024-03-29T14:45:33;5.20;;;3.25;;
4873;SDS011;2451;49.970;9.068;2024-03-29T14:47:58;4.30;;;2.75;;
4873;SDS011;2451;49.970;9.068;2024-03-29T14:50:24;4.03;;;2.30;;
4873;SDS011;2451;49.970;9.068;2024-03-29T14:52:49;3.25;;;2.00;;
4873;SDS011;2451;49.970;9.068;2024-03-29T14:55:15;4.80;;;1.90;;
4873;SDS011;2451;49.970;9.068;2024-03-29T14:57:40;3.90;;;2.50;;
4873;SDS011;2451;49.970;9.068;2024-03-29T15:00:06;2.70;;;1.92;;
4873;SDS011;2451;49.970;9.068;2024-03-29T15:02:33;2.65;;;2.00;;
4873;SDS011;2451;49.970;9.068;2024-03-29T15:04:59;2.90;;;2.25;;
4873;SDS011;2451;49.970;9.068;2024-03-29T15:07:24;3.45;;;2.35;;
4873;SDS011;2451;49.970;9.068;2024-03-29T15:09:50;5.22;;;1.80;;
4873;SDS011;2451;49.970;9.068;2024-03-29T15:12:16;5.03;;;1.98;;
4873;SDS011;2451;49.970;9.068;2024-03-29T15:14:42;3.00;;;1.80;;
4873;SDS011;2451;49.970;9.068;2024-03-29T15:17:07;3.20;;;1.70;;
4873;SDS011;2451;49.970;9.068;2024-03-29T15:19:33;3.72;;;2.25;;
4873;SDS011;2451;49.970;9.068;2024-03-29T15:21:58;4.70;;;2.70;;
4873;SDS011;2451;49.970;9.068;2024-03-29T15:24:24;7.50;;;3.40;;
4873;SDS011;2451;49.970;9.068;2024-03-29T15:26:50;6.75;;;3.60;;
4873;SDS011;2451;49.970;9.068;2024-03-29T15:29:18;13.65;;;7.60;;
4873;SDS011;2451;49.970;9.068;2024-03-29T15:31:44;7.32;;;3.85;;